createdAt,value
2019-03-27T00:00:26.674Z,6.90
2019-03-27T00:02:55.881Z,6.10
2019-03-27T00:05:25.851Z,6.30
2019-03-27T00:07:54.775Z,6.70
2019-03-27T00:10:23.667Z,6.70
2019-03-27T00:12:52.563Z,6.80
2019-03-27T00:15:21.498Z,6.37
2019-03-27T00:17:50.382Z,6.73
2019-03-27T00:20:19.267Z,6.80
2019-03-27T00:22:48.199Z,6.93
2019-03-27T00:25:17.085Z,6.77
2019-03-27T00:27:45.978Z,6.07
2019-03-27T00:30:14.967Z,6.67
2019-03-27T00:32:43.942Z,6.50
2019-03-27T00:35:12.914Z,6.70
2019-03-27T00:37:41.816Z,6.50
2019-03-27T00:40:11.077Z,6.17
2019-03-27T00:42:40.071Z,6.53
2019-03-27T00:45:09.336Z,6.50
2019-03-27T00:47:38.302Z,6.60
2019-03-27T00:50:07.881Z,6.37
2019-03-27T00:52:36.858Z,6.47
2019-03-27T00:55:07.412Z,7.40
2019-03-27T00:57:36.372Z,7.43
2019-03-27T01:00:06.811Z,7.40
2019-03-27T01:02:35.819Z,7.57
2019-03-27T01:05:05.718Z,7.27
2019-03-27T01:07:34.695Z,7.70
2019-03-27T01:10:04.153Z,6.63
2019-03-27T01:12:33.223Z,7.67
2019-03-27T01:15:02.107Z,6.80
2019-03-27T01:17:33.650Z,6.77
2019-03-27T01:20:02.673Z,6.83
2019-03-27T01:22:31.639Z,7.07
2019-03-27T01:25:00.584Z,7.47
2019-03-27T01:27:29.532Z,7.73
2019-03-27T01:29:58.425Z,6.77
2019-03-27T01:32:27.338Z,6.93
2019-03-27T01:34:56.301Z,6.43
2019-03-27T01:37:25.198Z,6.80
2019-03-27T01:39:54.103Z,7.60
2019-03-27T01:42:22.995Z,7.67
2019-03-27T01:44:51.903Z,7.37
2019-03-27T01:47:20.834Z,7.63
2019-03-27T01:49:49.819Z,8.07
2019-03-27T01:52:18.710Z,6.43
2019-03-27T01:54:47.637Z,7.73
2019-03-27T01:57:16.540Z,7.53
2019-03-27T01:59:46.411Z,7.40
2019-03-27T02:02:15.381Z,8.00
2019-03-27T02:04:44.277Z,8.03
2019-03-27T02:07:13.183Z,8.40
2019-03-27T02:09:42.179Z,9.07
2019-03-27T02:12:11.098Z,9.53
2019-03-27T02:14:40.000Z,9.10
2019-03-27T02:17:08.920Z,10.50
2019-03-27T02:19:37.827Z,10.03
2019-03-27T02:22:08.267Z,10.77
2019-03-27T02:24:37.178Z,10.93
2019-03-27T02:27:06.142Z,9.37
2019-03-27T02:29:35.036Z,10.33
2019-03-27T02:32:04.120Z,11.30
2019-03-27T02:34:33.013Z,10.43
2019-03-27T02:37:01.924Z,11.57
2019-03-27T02:39:30.888Z,11.63
2019-03-27T02:41:59.817Z,11.73
2019-03-27T02:44:28.713Z,12.47
2019-03-27T02:46:57.622Z,11.53
2019-03-27T02:49:26.625Z,11.60
2019-03-27T02:51:55.512Z,12.53
2019-03-27T02:54:24.414Z,11.53
2019-03-27T02:56:53.465Z,12.63
2019-03-27T02:59:22.370Z,12.73
2019-03-27T03:01:51.261Z,12.70
2019-03-27T03:04:20.260Z,11.67
2019-03-27T03:06:49.229Z,11.90
2019-03-27T03:09:18.198Z,12.90
2019-03-27T03:11:47.202Z,11.70
2019-03-27T03:14:16.078Z,12.63
2019-03-27T03:16:45.129Z,12.33
2019-03-27T03:19:14.014Z,12.67
2019-03-27T03:21:42.915Z,12.47
2019-03-27T03:24:11.824Z,12.30
2019-03-27T03:26:40.729Z,12.60
2019-03-27T03:29:09.700Z,12.70
2019-03-27T03:31:38.669Z,13.00
2019-03-27T03:34:07.663Z,12.97
2019-03-27T03:36:37.732Z,12.50
2019-03-27T03:39:06.695Z,12.77
2019-03-27T03:41:35.613Z,13.67
2019-03-27T03:44:04.506Z,13.27
2019-03-27T03:46:33.407Z,11.27
2019-03-27T03:49:02.338Z,12.00
2019-03-27T03:51:31.383Z,13.13
2019-03-27T03:54:00.365Z,11.97
2019-03-27T03:56:29.958Z,12.43
2019-03-27T03:58:59.725Z,13.10
2019-03-27T04:01:28.680Z,12.53
2019-03-27T04:03:57.674Z,12.50
2019-03-27T04:06:27.540Z,11.40
2019-03-27T04:08:56.441Z,11.13
2019-03-27T04:11:25.358Z,12.30
2019-03-27T04:13:54.257Z,13.10
2019-03-27T04:16:23.170Z,13.47
2019-03-27T04:18:52.079Z,11.67
2019-03-27T04:21:22.185Z,11.90
2019-03-27T04:23:51.093Z,12.73
2019-03-27T04:26:19.990Z,12.03
2019-03-27T04:28:48.906Z,13.00
2019-03-27T04:31:17.883Z,11.67
2019-03-27T04:33:46.780Z,12.67
2019-03-27T04:36:15.683Z,12.07
2019-03-27T04:38:44.610Z,12.27
2019-03-27T04:41:13.577Z,12.53
2019-03-27T04:43:42.480Z,12.50
2019-03-27T04:46:11.474Z,13.00
2019-03-27T04:48:40.367Z,12.27
2019-03-27T04:51:09.266Z,12.67
2019-03-27T04:53:38.176Z,11.87
2019-03-27T04:56:07.072Z,13.23
2019-03-27T04:58:35.974Z,13.10
2019-03-27T05:01:04.960Z,13.37
2019-03-27T05:03:33.858Z,13.23
2019-03-27T05:06:02.755Z,13.57
2019-03-27T05:08:31.667Z,13.07
2019-03-27T05:11:00.625Z,12.47
2019-03-27T05:13:29.527Z,12.70
2019-03-27T05:15:59.913Z,12.70
2019-03-27T05:18:28.815Z,11.70
2019-03-27T05:20:57.717Z,11.70
2019-03-27T05:23:26.732Z,14.43
2019-03-27T05:25:55.639Z,13.90
2019-03-27T05:28:24.541Z,13.23
2019-03-27T05:30:53.463Z,12.77
2019-03-27T05:33:22.354Z,13.87
2019-03-27T05:35:51.255Z,12.33
2019-03-27T05:38:20.217Z,13.23
2019-03-27T05:40:49.105Z,13.27
2019-03-27T05:43:18.001Z,13.97
2019-03-27T05:45:46.931Z,12.37
2019-03-27T05:48:15.839Z,12.63
2019-03-27T05:50:44.734Z,13.13
2019-03-27T05:53:13.665Z,13.17
2019-03-27T05:55:42.556Z,12.20
2019-03-27T05:58:11.453Z,12.10
2019-03-27T06:00:40.382Z,13.03
2019-03-27T06:03:09.283Z,13.37
2019-03-27T06:05:38.200Z,13.00
2019-03-27T06:08:07.131Z,13.33
2019-03-27T06:10:36.035Z,13.10
2019-03-27T06:13:05.901Z,13.87
2019-03-27T06:15:34.829Z,12.53
2019-03-27T06:18:13.018Z,14.17
2019-03-27T06:20:34.504Z,12.90
2019-03-27T06:23:03.456Z,12.67
2019-03-27T06:25:32.350Z,13.40
2019-03-27T06:28:01.248Z,14.73
2019-03-27T06:30:30.347Z,14.77
2019-03-27T06:32:59.242Z,13.90
2019-03-27T06:35:28.152Z,15.33
2019-03-27T06:37:57.076Z,15.27
2019-03-27T06:40:26.040Z,14.60
2019-03-27T06:42:54.943Z,15.23
2019-03-27T06:45:23.990Z,15.10
2019-03-27T06:47:52.899Z,14.43
2019-03-27T06:50:21.804Z,14.77
2019-03-27T06:52:50.715Z,15.47
2019-03-27T06:55:19.626Z,14.63
2019-03-27T06:57:48.604Z,15.73
2019-03-27T07:00:19.055Z,14.70
2019-03-27T07:02:47.949Z,14.27
2019-03-27T07:05:16.855Z,17.27
2019-03-27T07:07:45.790Z,16.37
2019-03-27T07:10:14.751Z,16.57
2019-03-27T07:12:43.719Z,16.27
2019-03-27T07:15:12.740Z,17.40
2019-03-27T07:17:41.639Z,16.13
2019-03-27T07:20:10.905Z,16.97
2019-03-27T07:22:39.810Z,18.83
2019-03-27T07:25:08.917Z,18.80
2019-03-27T07:27:37.871Z,18.20
2019-03-27T07:30:07.049Z,18.87
2019-03-27T07:32:36.052Z,17.73
2019-03-27T07:35:05.127Z,19.43
2019-03-27T07:37:34.036Z,19.27
2019-03-27T07:40:03.114Z,18.87
2019-03-27T07:42:32.012Z,19.03
2019-03-27T07:45:00.914Z,18.93
2019-03-27T07:47:29.840Z,20.73
2019-03-27T07:49:58.735Z,20.90
2019-03-27T07:52:28.695Z,20.60
2019-03-27T07:54:57.732Z,19.37
2019-03-27T07:57:26.638Z,21.00
2019-03-27T07:59:55.535Z,20.60
2019-03-27T08:02:24.473Z,21.77
2019-03-27T08:04:53.367Z,22.17
2019-03-27T08:07:27.062Z,21.90
2019-03-27T08:09:53.033Z,22.87
2019-03-27T08:12:21.936Z,22.13
2019-03-27T08:14:50.895Z,20.00
2019-03-27T08:17:19.830Z,20.50
2019-03-27T08:19:48.738Z,20.50
2019-03-27T08:22:19.130Z,18.17
2019-03-27T08:24:48.056Z,20.80
2019-03-27T08:27:16.960Z,19.87
2019-03-27T08:29:45.856Z,18.70
2019-03-27T08:32:14.791Z,19.43
2019-03-27T08:34:43.683Z,18.23
2019-03-27T08:37:12.582Z,18.93
2019-03-27T08:39:41.539Z,18.07
2019-03-27T08:42:10.503Z,17.67
2019-03-27T08:44:39.399Z,17.60
2019-03-27T08:47:08.313Z,17.20
2019-03-27T08:49:37.208Z,16.37
2019-03-27T08:52:06.116Z,16.43
2019-03-27T08:54:35.115Z,17.57
2019-03-27T08:57:04.097Z,16.73
2019-03-27T08:59:32.989Z,17.33
2019-03-27T09:02:01.929Z,16.90
2019-03-27T09:04:30.826Z,17.83
2019-03-27T09:06:59.807Z,15.80
2019-03-27T09:09:28.711Z,16.47
2019-03-27T09:11:57.647Z,17.50
2019-03-27T09:14:26.556Z,18.00
2019-03-27T09:16:55.523Z,19.60
2019-03-27T09:19:35.113Z,18.43
2019-03-27T09:21:55.051Z,16.43
2019-03-27T09:24:23.941Z,16.53
2019-03-27T09:26:52.896Z,17.50
2019-03-27T09:29:21.801Z,16.80
2019-03-27T09:31:50.694Z,18.30
2019-03-27T09:34:19.623Z,15.60
2019-03-27T09:36:48.587Z,17.10
2019-03-27T09:39:17.591Z,16.30
2019-03-27T09:41:46.499Z,15.20
2019-03-27T09:44:15.392Z,14.53
2019-03-27T09:46:44.316Z,15.07
2019-03-27T09:49:13.218Z,14.67
2019-03-27T09:51:42.114Z,13.90
2019-03-27T09:54:12.005Z,14.23
2019-03-27T09:56:40.907Z,12.40
2019-03-27T09:59:09.804Z,12.07
2019-03-27T10:01:38.737Z,12.53
2019-03-27T10:04:07.628Z,12.13
2019-03-27T10:06:36.544Z,12.50
2019-03-27T10:09:06.234Z,12.43
2019-03-27T10:11:35.129Z,12.30
2019-03-27T10:14:04.298Z,11.57
2019-03-27T10:16:33.231Z,11.83
2019-03-27T10:19:02.125Z,11.37
2019-03-27T10:21:31.030Z,12.90
2019-03-27T10:24:00.204Z,10.50
2019-03-27T10:26:29.179Z,11.23
2019-03-27T10:28:58.080Z,11.30
2019-03-27T10:31:27.034Z,10.73
2019-03-27T10:33:55.934Z,10.57
2019-03-27T10:36:24.828Z,9.90
2019-03-27T10:38:53.747Z,10.67
2019-03-27T10:41:22.641Z,9.53
2019-03-27T10:43:51.520Z,8.00
2019-03-27T10:46:20.457Z,8.03
2019-03-27T10:48:52.735Z,8.83
2019-03-27T10:51:20.083Z,7.23
2019-03-27T10:53:48.987Z,6.70
2019-03-27T10:56:17.878Z,7.27
2019-03-27T10:58:46.775Z,6.73
2019-03-27T11:01:15.687Z,7.30
2019-03-27T11:03:44.612Z,6.10
2019-03-27T11:06:13.655Z,7.37
2019-03-27T11:08:42.545Z,6.27
2019-03-27T11:11:11.454Z,6.77
2019-03-27T11:13:40.393Z,6.50
2019-03-27T11:16:09.267Z,7.30
2019-03-27T11:18:38.161Z,7.60
2019-03-27T11:21:07.070Z,7.30
2019-03-27T11:23:35.955Z,8.77
2019-03-27T11:26:05.923Z,8.53
2019-03-27T11:28:35.802Z,8.80
2019-03-27T11:31:04.769Z,8.80
2019-03-27T11:33:33.674Z,8.77
2019-03-27T11:36:02.674Z,7.83
2019-03-27T11:38:31.557Z,7.60
2019-03-27T11:41:00.454Z,7.23
2019-03-27T11:43:30.476Z,6.40
2019-03-27T11:45:59.362Z,6.33
2019-03-27T11:48:28.323Z,6.47
2019-03-27T11:50:57.251Z,6.20
2019-03-27T11:53:26.145Z,6.70
2019-03-27T11:55:55.034Z,5.17
2019-03-27T11:58:23.966Z,5.20
2019-03-27T12:00:54.894Z,5.00
2019-03-27T12:03:23.446Z,5.03
2019-03-27T12:05:52.384Z,5.07
2019-03-27T12:08:21.290Z,4.70
2019-03-27T12:10:50.182Z,6.00
2019-03-27T12:13:19.175Z,6.30
2019-03-27T12:15:48.128Z,5.83
2019-03-27T12:18:18.889Z,5.90
2019-03-27T12:20:58.141Z,6.10
2019-03-27T12:23:18.475Z,6.07
2019-03-27T12:25:47.364Z,5.70
2019-03-27T12:28:16.287Z,5.33
2019-03-27T12:30:45.179Z,5.33
2019-03-27T12:33:14.127Z,6.23
2019-03-27T12:35:44.191Z,5.37
2019-03-27T12:38:13.074Z,5.83
2019-03-27T12:40:42.026Z,5.80
2019-03-27T12:43:11.002Z,6.80
2019-03-27T12:45:39.966Z,6.53
2019-03-27T12:48:09.001Z,5.97
2019-03-27T12:50:37.981Z,6.03
2019-03-27T12:53:07.016Z,5.50
2019-03-27T12:55:35.971Z,5.17
2019-03-27T12:58:04.945Z,6.23
2019-03-27T13:00:34.102Z,6.40
2019-03-27T13:03:03.060Z,6.20
2019-03-27T13:05:31.955Z,6.87
2019-03-27T13:08:00.890Z,6.47
2019-03-27T13:10:29.844Z,6.60
2019-03-27T13:12:59.711Z,7.00
2019-03-27T13:15:28.616Z,6.60
2019-03-27T13:17:57.504Z,6.03
2019-03-27T13:20:26.412Z,5.83
2019-03-27T13:22:55.392Z,6.33
2019-03-27T13:25:25.468Z,5.47
2019-03-27T13:27:54.423Z,6.03
2019-03-27T13:30:23.388Z,5.80
2019-03-27T13:32:52.363Z,5.80
2019-03-27T13:35:21.303Z,5.40
2019-03-27T13:37:50.190Z,5.17
2019-03-27T13:40:19.168Z,5.20
2019-03-27T13:42:48.090Z,4.93
2019-03-27T13:45:18.123Z,5.20
2019-03-27T13:47:47.069Z,4.73
2019-03-27T13:50:16.381Z,5.77
2019-03-27T13:52:45.271Z,6.17
2019-03-27T13:55:14.223Z,5.83
2019-03-27T13:57:43.216Z,6.07
2019-03-27T14:00:14.061Z,5.20
2019-03-27T14:02:43.075Z,5.87
2019-03-27T14:05:12.349Z,5.10
2019-03-27T14:07:41.367Z,5.07
2019-03-27T14:10:10.622Z,5.03
2019-03-27T14:12:39.522Z,5.07
2019-03-27T14:15:08.809Z,4.80
2019-03-27T14:17:37.762Z,4.97
2019-03-27T14:20:07.324Z,5.03
2019-03-27T14:22:36.309Z,4.77
2019-03-27T14:25:08.465Z,4.50
2019-03-27T14:27:37.466Z,4.63
2019-03-27T14:30:07.926Z,4.23
2019-03-27T14:32:36.896Z,4.20
2019-03-27T14:35:05.989Z,4.43
2019-03-27T14:37:34.878Z,4.20
2019-03-27T14:40:05.631Z,4.20
2019-03-27T14:42:34.555Z,3.40
2019-03-27T14:45:06.089Z,3.80
2019-03-27T14:47:34.981Z,3.77
2019-03-27T14:50:06.489Z,3.60
2019-03-27T14:52:35.373Z,3.03
2019-03-27T14:55:06.465Z,4.30
2019-03-27T14:57:35.705Z,4.07
2019-03-27T15:00:07.071Z,3.80
2019-03-27T15:02:36.345Z,4.27
2019-03-27T15:05:06.224Z,4.40
2019-03-27T15:07:35.111Z,4.20
2019-03-27T15:10:05.564Z,4.80
2019-03-27T15:12:34.527Z,4.10
2019-03-27T15:15:04.701Z,3.83
2019-03-27T15:17:33.721Z,4.33
2019-03-27T15:20:02.722Z,4.27
2019-03-27T15:22:31.652Z,4.10
2019-03-27T15:25:00.628Z,4.60
2019-03-27T15:27:29.507Z,4.47
2019-03-27T15:29:58.402Z,4.20
2019-03-27T15:32:27.338Z,3.90
2019-03-27T15:34:56.233Z,4.63
2019-03-27T15:37:25.125Z,4.47
2019-03-27T15:39:54.052Z,4.77
2019-03-27T15:42:22.934Z,4.20
2019-03-27T15:44:52.692Z,4.50
2019-03-27T15:47:21.846Z,4.30
2019-03-27T15:49:50.759Z,4.27
2019-03-27T15:52:19.642Z,5.07
2019-03-27T15:54:48.536Z,4.53
2019-03-27T15:57:17.521Z,4.00
2019-03-27T15:59:46.409Z,5.00
2019-03-27T16:02:15.301Z,5.03
2019-03-27T16:04:44.224Z,4.50
2019-03-27T16:07:13.183Z,4.73
2019-03-27T16:09:42.067Z,4.33
2019-03-27T16:12:11.942Z,3.90
2019-03-27T16:14:40.900Z,3.70
2019-03-27T16:17:13.640Z,3.97
2019-03-27T16:19:40.477Z,4.23
2019-03-27T16:22:09.444Z,4.20
2019-03-27T16:24:38.326Z,3.73
2019-03-27T16:27:07.242Z,4.57
2019-03-27T16:29:36.132Z,3.70
2019-03-27T16:32:05.091Z,3.63
2019-03-27T16:34:34.379Z,3.97
2019-03-27T16:37:03.335Z,4.13
2019-03-27T16:39:32.225Z,4.10
2019-03-27T16:42:01.145Z,4.20
2019-03-27T16:44:30.028Z,4.27
2019-03-27T16:46:58.991Z,4.03
2019-03-27T16:49:27.917Z,3.87
2019-03-27T16:51:56.817Z,4.00
2019-03-27T16:54:25.699Z,4.27
2019-03-27T16:56:54.604Z,4.47
2019-03-27T16:59:23.556Z,3.17
2019-03-27T17:01:52.446Z,4.20
2019-03-27T17:04:21.355Z,3.60
2019-03-27T17:06:50.250Z,3.90
2019-03-27T17:09:19.141Z,3.50
2019-03-27T17:11:48.063Z,3.40
2019-03-27T17:14:16.948Z,3.67
2019-03-27T17:16:45.844Z,3.27
2019-03-27T17:19:14.868Z,3.43
2019-03-27T17:21:43.752Z,4.50
2019-03-27T17:24:12.641Z,3.57
2019-03-27T17:26:41.555Z,4.17
2019-03-27T17:29:10.458Z,3.93
2019-03-27T17:31:39.400Z,3.70
2019-03-27T17:34:08.290Z,3.73
2019-03-27T17:36:37.192Z,4.10
2019-03-27T17:39:07.788Z,3.77
2019-03-27T17:41:37.136Z,3.60
2019-03-27T17:44:06.088Z,4.27
2019-03-27T17:46:35.004Z,4.07
2019-03-27T17:49:03.961Z,3.33
2019-03-27T17:51:32.964Z,3.90
2019-03-27T17:54:01.946Z,3.70
2019-03-27T17:56:30.913Z,4.20
2019-03-27T17:58:59.943Z,3.90
2019-03-27T18:01:28.927Z,3.90
2019-03-27T18:03:57.818Z,4.03
2019-03-27T18:06:26.709Z,4.17
2019-03-27T18:08:55.640Z,3.93
2019-03-27T18:11:24.522Z,3.70
2019-03-27T18:13:53.425Z,3.53
2019-03-27T18:16:22.345Z,4.07
2019-03-27T18:18:51.313Z,4.03
2019-03-27T18:21:21.446Z,4.17
2019-03-27T18:23:50.500Z,3.80
2019-03-27T18:26:19.452Z,4.30
2019-03-27T18:28:48.337Z,3.90
2019-03-27T18:31:17.257Z,4.43
2019-03-27T18:33:46.148Z,4.70
2019-03-27T18:36:15.048Z,5.47
2019-03-27T18:38:45.905Z,5.90
2019-03-27T18:41:14.585Z,6.97
2019-03-27T18:43:43.476Z,7.53
2019-03-27T18:46:12.384Z,7.27
2019-03-27T18:48:41.277Z,6.20
2019-03-27T18:51:10.242Z,6.97
2019-03-27T18:53:39.253Z,6.00
2019-03-27T18:56:08.233Z,6.83
2019-03-27T18:58:37.117Z,5.90
2019-03-27T19:01:06.126Z,6.63
2019-03-27T19:03:35.097Z,5.50
2019-03-27T19:06:04.061Z,5.87
2019-03-27T19:08:33.001Z,6.00
2019-03-27T19:11:01.973Z,5.40
2019-03-27T19:13:30.870Z,5.60
2019-03-27T19:15:59.876Z,5.63
2019-03-27T19:18:28.769Z,5.60
2019-03-27T19:20:57.667Z,5.53
2019-03-27T19:23:26.755Z,5.33
2019-03-27T19:25:55.646Z,5.10
2019-03-27T19:28:24.622Z,4.90
2019-03-27T19:30:53.600Z,5.23
2019-03-27T19:33:22.554Z,5.93
2019-03-27T19:35:51.572Z,5.43
2019-03-27T19:38:23.660Z,6.07
2019-03-27T19:40:53.720Z,5.10
2019-03-27T19:43:22.625Z,5.87
2019-03-27T19:45:51.784Z,6.07
2019-03-27T19:48:20.856Z,5.77
2019-03-27T19:50:49.751Z,5.97
2019-03-27T19:53:18.645Z,5.30
2019-03-27T19:55:47.670Z,6.00
2019-03-27T19:58:16.581Z,6.33
2019-03-27T20:00:45.468Z,6.13
2019-03-27T20:03:14.411Z,5.60
2019-03-27T20:05:43.380Z,5.50
2019-03-27T20:08:12.359Z,5.90
2019-03-27T20:10:41.368Z,6.17
2019-03-27T20:13:10.259Z,5.90
2019-03-27T20:15:39.157Z,5.50
2019-03-27T20:18:08.439Z,5.33
2019-03-27T20:20:37.424Z,6.07
2019-03-27T20:23:14.924Z,6.30
2019-03-27T20:25:37.087Z,6.13
2019-03-27T20:28:07.328Z,6.10
2019-03-27T20:30:36.294Z,6.23
2019-03-27T20:33:05.199Z,6.13
2019-03-27T20:35:34.267Z,5.63
2019-03-27T20:38:03.205Z,6.87
2019-03-27T20:40:32.237Z,6.10
2019-03-27T20:43:01.193Z,6.33
2019-03-27T20:45:31.196Z,6.43
2019-03-27T20:48:00.175Z,6.27
2019-03-27T20:50:29.141Z,5.80
2019-03-27T20:52:58.131Z,7.10
2019-03-27T20:55:30.444Z,6.03
2019-03-27T20:57:59.050Z,6.33
2019-03-27T21:00:28.077Z,5.90
2019-03-27T21:02:57.039Z,7.20
2019-03-27T21:05:26.156Z,6.67
2019-03-27T21:07:55.130Z,7.23
2019-03-27T21:10:24.985Z,6.13
2019-03-27T21:12:53.974Z,6.70
2019-03-27T21:15:23.044Z,6.50
2019-03-27T21:17:51.949Z,6.17
2019-03-27T21:20:20.836Z,7.33
2019-03-27T21:22:49.743Z,6.10
2019-03-27T21:25:18.636Z,6.70
2019-03-27T21:27:47.540Z,6.57
2019-03-27T21:30:16.752Z,7.40
2019-03-27T21:32:45.638Z,5.90
2019-03-27T21:35:14.517Z,6.37
2019-03-27T21:37:44.992Z,6.33
2019-03-27T21:40:14.068Z,6.70
2019-03-27T21:42:42.971Z,6.43
2019-03-27T21:45:12.072Z,5.70
2019-03-27T21:47:41.031Z,6.83
2019-03-27T21:50:09.997Z,6.77
2019-03-27T21:52:38.907Z,6.47
2019-03-27T21:55:21.881Z,6.27
2019-03-27T21:57:40.050Z,6.13
2019-03-27T22:00:09.124Z,6.63
2019-03-27T22:02:38.304Z,6.30
2019-03-27T22:05:07.590Z,7.30
2019-03-27T22:07:36.494Z,6.53
2019-03-27T22:10:08.535Z,6.60
2019-03-27T22:12:38.452Z,6.50
2019-03-27T22:15:08.808Z,6.97
2019-03-27T22:17:37.705Z,6.13
2019-03-27T22:20:07.973Z,6.47
2019-03-27T22:22:36.865Z,7.17
2019-03-27T22:25:06.723Z,6.57
2019-03-27T22:27:35.651Z,6.90
2019-03-27T22:30:07.590Z,6.60
2019-03-27T22:32:36.594Z,6.87
2019-03-27T22:35:06.545Z,7.17
2019-03-27T22:37:35.440Z,6.37
2019-03-27T22:40:07.647Z,7.37
2019-03-27T22:42:36.564Z,6.87
2019-03-27T22:45:05.885Z,6.33
2019-03-27T22:47:34.783Z,7.23
2019-03-27T22:50:08.006Z,7.20
2019-03-27T22:52:35.981Z,7.23
2019-03-27T22:55:06.341Z,6.90
2019-03-27T22:57:35.242Z,7.20
2019-03-27T23:00:10.316Z,7.13
2019-03-27T23:02:41.500Z,6.83
2019-03-27T23:05:10.641Z,6.37
2019-03-27T23:07:39.560Z,6.23
2019-03-27T23:10:09.692Z,7.40
2019-03-27T23:12:38.676Z,7.30
2019-03-27T23:15:09.326Z,6.80
2019-03-27T23:17:38.221Z,6.70
2019-03-27T23:20:07.192Z,6.93
2019-03-27T23:22:36.174Z,7.03
2019-03-27T23:25:05.649Z,6.57
2019-03-27T23:27:34.627Z,6.77
2019-03-27T23:30:05.138Z,7.07
2019-03-27T23:32:34.284Z,6.50
2019-03-27T23:35:04.626Z,7.10
2019-03-27T23:37:33.584Z,6.87
2019-03-27T23:40:04.344Z,6.60
2019-03-27T23:42:34.124Z,7.27
2019-03-27T23:45:04.019Z,7.73
2019-03-27T23:47:33.174Z,6.07
2019-03-27T23:50:02.203Z,7.40
2019-03-27T23:52:31.370Z,7.13
2019-03-27T23:55:00.370Z,8.00
2019-03-27T23:57:29.299Z,7.33
2019-03-27T23:59:59.266Z,7.50
